Anahola, Hawaii
Current Conditions -  °F | °C
As of 11:53 AM on Wednesday 28 Jan 2015 (Local Time) from PHLI Reporting Station
Clear Clear  
Wind Chill: 78°   Ceiling: Unl
Heat Index: 80°   Visibility: 10mi
Dew Point: 66°   Wind: 7mph
Humidity: 66%   Direction: 90°E
Pressure: 29.97"   Gusts: NA
Location:  22.14°N, 159.31°W
Report Text: PHLI 282153Z 09006KT 10SM CLR 26/19 A2997 RMK AO2 SLP145 T02560189
Loading
Personal Weather Stations






























Interactive Weather Map New forecast layout! Learn more

10-Day Weather Forecast

Advertisements
Track Severe Weather on mobile